Hunters, WA (99137)

6:57 PM PDT on July 27, 2016 (GMT -0700)
Waterloo | | Change Station

Elev 2379 ft 48.37 °N, 118.12 °W | Updated 13 seconds ago

Clear
Clear
91.8 °F
Feels Like 90 °F
N
0.0
Wind Variable Wind from WSW
Gusts 5.3 mph

Today
High -- | Low -- °F
--% Chance of Precip.
Yesterday
High -- | Low -- °F
Precip. -- in
Pressure 29.96 in
Visibility 10.0 miles
Clouds Clear
Heat Index 90 °F
Dew Point 54 °F
Humidity 28%
Rainfall 0.00 in
Snow Depth Not available.
5:22 AM 8:34 PM
Last Quarter, 37% visible
METAR KDEW 280153Z AUTO 29005KT 10SM CLR 32/09 A3001 RMK AO2 SLP146 T03170089
Pressure 29.96 in
Visibility 10.0 miles
Clouds Clear
Heat Index 90 °F
Dew Point 54 °F
Humidity 28%
Rainfall 0.00 in
Snow Depth Not available.
5:22 AM 8:34 PM
Last Quarter, 37% visible
METAR KDEW 280153Z AUTO 29005KT 10SM CLR 32/09 A3001 RMK AO2 SLP146 T03170089

10-Day Weather Forecast

Almanac

Astronomy

Jul. 27, 2016 Rise Set
Actual Time
Civil Twilight
Nautical Twilight
Astronomical Twilight
Moon
Length of Visible Light
Length of Day
Tomorrow will be .
, % of the Moon is Illuminated

Today's Extremes

State Highs State Lows

Community

WunderPhotos

Upload Photos

1,928,005 photos uploaded!

WunderBlog® & News

Nearby

Air Quality

  Air Quality AQ Index Pollutant
Not available.

Snow Depth

Station Depth Elevation

Earthquake Activity

City Distance Mag. Time & Date
Minimum magnitude displayed is 2.5.

Coastal Water Temperatures

Place Temperature

Stations

Nearby Weather Stations

Station Location Temp. Windchill Dew Point Humidity Wind Precip. Elev Updated Type
                   

Watches & Warnings

There are currently no watches in effect.